Time;durP1;ratioP1;P1;durP2;ratioP2;P2;SDS_P1;SDS_P2;PMS_P1;PMS_P2;Temp;Humidity;BMP_temperature;BMP_pressure;BME280_temperature;BME280_humidity;BME280_pressure;Samples;Min_cycle;Max_cycle;Signal;HPM_P1;HPM_P2
2023/02/21 02:14:19;;;;;;;76.83;44.77;;;7.70;93.20;;;;;;4955814;28;20211;-80
2023/02/21 02:17:00;;;;;;;85.00;46.77;;;7.70;93.20;;;;;;4931409;28;20218;-80
2023/02/21 02:19:32;;;;;;;88.40;45.17;;;7.70;93.30;;;;;;4958178;28;20224;-80
2023/02/21 02:22:12;;;;;;;84.27;44.40;;;7.70;93.40;;;;;;4961620;28;20208;-80
2023/02/21 02:25:01;;;;;;;82.73;46.03;;;7.70;93.50;;;;;;4937205;28;20203;-81
2023/02/21 02:27:58;;;;;;;86.67;44.30;;;7.70;93.60;;;;;;4934023;29;20207;-81
2023/02/21 02:30:44;;;;;;;84.17;43.70;;;7.70;93.70;;;;;;4958724;28;20202;-81
2023/02/21 02:33:20;;;;;;;72.30;41.33;;;7.70;93.70;;;;;;4956380;28;20219;-80
2023/02/21 02:36:13;;;;;;;81.67;42.40;;;7.70;93.80;;;;;;4957763;28;20261;-80
2023/02/21 02:39:01;;;;;;;80.47;42.37;;;7.70;93.80;;;;;;4934680;29;20231;-80
2023/02/21 02:41:47;;;;;;;69.90;41.17;;;7.60;93.80;;;;;;4955720;28;20197;-80
2023/02/21 02:44:23;;;;;;;71.83;39.20;;;7.60;93.70;;;;;;4953452;28;20641;-80
2023/02/21 02:46:53;;;;;;;78.63;41.47;;;7.60;93.60;;;;;;4924758;28;20209;-80
2023/02/21 02:49:24;;;;;;;79.47;42.87;;;7.60;93.60;;;;;;4935121;29;20269;-81
2023/02/21 02:51:52;;;;;;;79.43;43.07;;;7.60;93.60;;;;;;4960632;28;20221;-81
2023/02/21 02:54:21;;;;;;;79.03;40.33;;;7.50;93.70;;;;;;4939203;29;20663;-80
2023/02/21 02:56:49;;;;;;;67.50;38.97;;;7.50;93.60;;;;;;4947260;28;20559;-80
2023/02/21 02:59:25;;;;;;;77.13;44.23;;;7.50;93.50;;;;;;4958114;28;20226;-80
2023/02/21 03:02:11;;;;;;;77.33;42.80;;;7.50;93.40;;;;;;4951979;28;20201;-80
2023/02/21 03:05:00;;;;;;;78.40;42.67;;;7.50;93.40;;;;;;4949731;28;20297;-80
2023/02/21 03:07:53;;;;;;;74.87;42.80;;;7.40;93.40;;;;;;4954436;28;20203;-80
2023/02/21 03:10:41;;;;;;;80.73;42.00;;;7.30;93.20;;;;;;4947544;28;20236;-80
2023/02/21 03:13:23;;;;;;;69.27;40.07;;;7.30;93.30;;;;;;4947241;28;20202;-80
2023/02/21 03:15:59;;;;;;;71.23;39.13;;;7.20;93.40;;;;;;4929241;29;20716;-80
2023/02/21 03:18:48;;;;;;;75.17;44.17;;;7.20;93.70;;;;;;4952835;28;20308;-80
2023/02/21 03:21:23;;;;;;;70.83;39.80;;;7.10;93.50;;;;;;4927305;28;20265;-81
2023/02/21 03:23:58;;;;;;;69.53;37.90;;;7.10;93.60;;;;;;4947090;28;20245;-80
2023/02/21 03:26:31;;;;;;;81.47;42.63;;;7.10;93.60;;;;;;4947123;28;20210;-80
2023/02/21 03:29:10;;;;;;;81.73;45.07;;;7.00;93.60;;;;;;4951627;28;20261;-81
2023/02/21 03:31:47;;;;;;;87.93;45.30;;;7.00;93.70;;;;;;4939885;28;20233;-80
2023/02/21 03:34:15;;;;;;;76.97;42.47;;;7.00;93.70;;;;;;4949657;28;20211;-80
2023/02/21 03:36:42;;;;;;;70.47;40.50;;;7.10;93.70;;;;;;4938811;29;20210;-82
2023/02/21 03:39:10;;;;;;;73.00;40.27;;;7.10;93.70;;;;;;4947158;28;20304;-80
2023/02/21 03:41:37;;;;;;;71.37;40.80;;;7.10;93.70;;;;;;4947150;28;20533;-81
2023/02/21 03:44:05;;;;;;;81.37;45.07;;;7.00;93.60;;;;;;4954457;28;20201;-80
2023/02/21 03:46:33;;;;;;;73.73;41.57;;;7.00;93.60;;;;;;4951086;28;20654;-81
2023/02/21 03:49:00;;;;;;;93.07;49.57;;;7.00;93.60;;;;;;4946048;28;20219;-80
2023/02/21 03:51:28;;;;;;;91.30;46.67;;;7.00;93.60;;;;;;4947022;28;20234;-81
2023/02/21 03:53:57;;;;;;;83.60;46.33;;;7.00;93.70;;;;;;4943335;28;20543;-80
2023/02/21 03:56:34;;;;;;;97.63;48.17;;;7.00;93.90;;;;;;4950175;28;20209;-80
2023/02/21 03:59:20;;;;;;;84.43;44.53;;;7.00;94.00;;;;;;4946681;28;20224;-80
2023/02/21 04:01:47;;;;;;;91.63;47.73;;;7.00;94.10;;;;;;4953639;28;20202;-80
2023/02/21 04:04:16;;;;;;;84.80;46.17;;;7.00;94.20;;;;;;4937561;29;20267;-81
2023/02/21 04:06:45;;;;;;;83.33;45.10;;;7.00;94.30;;;;;;4944822;28;20631;-80
2023/02/21 04:09:12;;;;;;;74.77;42.13;;;7.00;94.40;;;;;;4934858;28;20556;-80
2023/02/21 04:11:44;;;;;;;84.07;43.87;;;7.00;94.40;;;;;;4936850;29;20235;-81
2023/02/21 04:14:12;;;;;;;79.57;43.13;;;7.00;94.30;;;;;;4947987;28;20215;-80
2023/02/21 04:16:41;;;;;;;79.40;42.80;;;7.00;94.30;;;;;;4924563;29;20211;-80
2023/02/21 04:19:09;;;;;;;74.10;41.57;;;7.00;94.30;;;;;;4930444;29;20540;-81
2023/02/21 04:21:36;;;;;;;81.37;44.50;;;7.00;94.30;;;;;;4947579;28;20207;-80
2023/02/21 04:24:04;;;;;;;80.10;43.47;;;6.90;94.20;;;;;;4949402;28;20697;-80
2023/02/21 04:26:33;;;;;;;72.93;43.17;;;6.90;94.20;;;;;;4938285;28;20581;-80
2023/02/21 04:29:03;;;;;;;71.93;41.40;;;6.90;94.20;;;;;;4925319;29;20313;-80
2023/02/21 04:31:32;;;;;;;73.53;42.23;;;6.90;94.30;;;;;;4942061;28;20237;-81
2023/02/21 04:34:04;;;;;;;73.00;41.30;;;6.90;94.30;;;;;;4933145;29;20208;-80
2023/02/21 04:36:40;;;;;;;76.23;44.17;;;6.90;94.30;;;;;;4940235;28;20221;-80
2023/02/21 04:39:08;;;;;;;76.73;44.07;;;6.90;94.30;;;;;;4928883;29;20237;-80
2023/02/21 04:41:37;;;;;;;78.90;43.60;;;6.90;94.40;;;;;;4940482;28;20641;-80
2023/02/21 04:44:06;;;;;;;89.23;46.60;;;6.80;94.40;;;;;;4943013;28;20227;-80
2023/02/21 04:46:33;;;;;;;84.97;44.47;;;6.80;94.40;;;;;;4947570;28;20653;-81
2023/02/21 04:49:01;;;;;;;83.23;47.50;;;6.90;94.40;;;;;;4948010;28;20203;-80
2023/02/21 04:51:28;;;;;;;87.57;45.57;;;6.80;94.30;;;;;;4949863;28;20231;-81
2023/02/21 04:53:55;;;;;;;83.40;45.07;;;6.80;94.30;;;;;;4922532;29;20702;-80
2023/02/21 04:56:26;;;;;;;89.00;47.57;;;6.80;94.30;;;;;;4942339;28;20218;-81
2023/02/21 04:58:54;;;;;;;81.20;45.17;;;6.80;94.30;;;;;;4946841;28;20418;-81
2023/02/21 05:01:26;;;;;;;79.63;45.77;;;6.80;94.40;;;;;;4922675;29;20548;-80
2023/02/21 05:03:54;;;;;;;86.23;46.83;;;6.80;94.40;;;;;;4932918;29;20337;-80
2023/02/21 05:06:25;;;;;;;85.03;47.50;;;6.80;94.50;;;;;;4930188;29;20211;-81
2023/02/21 05:08:52;;;;;;;84.90;45.70;;;6.80;94.50;;;;;;4922609;29;20219;-81
2023/02/21 05:11:20;;;;;;;75.70;44.03;;;6.80;94.50;;;;;;4940237;28;20273;-80
2023/02/21 05:13:47;;;;;;;85.47;46.60;;;6.80;94.50;;;;;;4939548;29;20225;-80
2023/02/21 05:16:15;;;;;;;92.53;46.60;;;6.70;94.50;;;;;;4962134;28;20203;-80
2023/02/21 05:18:45;;;;;;;96.80;50.33;;;6.70;94.60;;;;;;4962895;28;20215;-81
2023/02/21 05:21:14;;;;;;;89.10;47.23;;;6.70;94.60;;;;;;4949261;28;20203;-81
2023/02/21 05:23:54;;;;;;;89.07;45.47;;;6.70;94.70;;;;;;4948789;28;20215;-81
2023/02/21 05:26:25;;;;;;;91.33;48.73;;;6.70;94.70;;;;;;4935856;29;20293;-81
2023/02/21 05:28:53;;;;;;;85.13;47.10;;;6.80;94.80;;;;;;4939516;28;20657;-81
2023/02/21 05:31:21;;;;;;;86.73;47.70;;;6.70;94.80;;;;;;4928821;29;20269;-81
2023/02/21 05:33:49;;;;;;;94.40;48.80;;;6.70;94.80;;;;;;4927650;29;20219;-81
2023/02/21 05:36:17;;;;;;;84.03;47.83;;;6.80;94.80;;;;;;4949158;28;20212;-81
2023/02/21 05:38:52;;;;;;;88.67;46.17;;;6.70;94.70;;;;;;4939302;29;20230;-81
2023/02/21 05:41:20;;;;;;;84.27;47.30;;;6.70;94.70;;;;;;4946488;28;20338;-81
2023/02/21 05:43:48;;;;;;;80.87;43.80;;;6.70;94.70;;;;;;4937847;29;20219;-79
2023/02/21 05:46:22;;;;;;;79.77;46.60;;;6.70;94.70;;;;;;4932520;29;20254;-79
2023/02/21 05:48:50;;;;;;;85.50;46.03;;;6.70;94.70;;;;;;4929428;29;20298;-80
2023/02/21 05:51:18;;;;;;;90.17;47.60;;;6.70;94.60;;;;;;4923810;29;20294;-79
2023/02/21 05:53:46;;;;;;;81.17;44.10;;;6.60;94.60;;;;;;4934946;29;20210;-80
2023/02/21 05:56:15;;;;;;;81.60;46.80;;;6.60;94.60;;;;;;4933193;29;20203;-80
2023/02/21 05:58:44;;;;;;;79.10;44.67;;;6.60;94.50;;;;;;4961484;28;20209;-80
2023/02/21 06:01:11;;;;;;;92.67;48.47;;;6.60;94.60;;;;;;4937758;29;20673;-80
2023/02/21 06:03:39;;;;;;;86.30;44.83;;;6.50;94.60;;;;;;4931438;29;20203;-79
2023/02/21 06:06:07;;;;;;;86.87;46.77;;;6.50;94.60;;;;;;4932242;29;20199;-80
2023/02/21 06:08:46;;;;;;;86.83;46.80;;;6.50;94.50;;;;;;4925926;29;20305;-80
2023/02/21 06:11:14;;;;;;;87.93;49.17;;;6.50;94.50;;;;;;4932941;29;20772;-80
2023/02/21 06:13:43;;;;;;;87.17;48.67;;;6.50;94.60;;;;;;4942809;28;20596;-80
2023/02/21 06:16:12;;;;;;;91.53;49.37;;;6.50;94.70;;;;;;4955663;28;20211;-80
2023/02/21 06:18:39;;;;;;;88.03;50.00;;;6.50;94.80;;;;;;4954385;28;20223;-80
2023/02/21 06:21:06;;;;;;;96.87;49.73;;;6.50;94.80;;;;;;4938997;28;20245;-80
2023/02/21 06:23:33;;;;;;;96.77;49.00;;;6.50;94.90;;;;;;4942967;28;20231;-80
2023/02/21 06:26:01;;;;;;;92.73;48.07;;;6.50;95.00;;;;;;4944902;28;20214;-80
2023/02/21 06:28:29;;;;;;;83.07;46.90;;;6.50;95.00;;;;;;4925208;29;20290;-79
2023/02/21 06:30:57;;;;;;;77.77;45.53;;;6.60;95.00;;;;;;4933790;29;20213;-79
2023/02/21 06:33:24;;;;;;;91.67;47.13;;;6.60;95.00;;;;;;4937633;29;20222;-79
2023/02/21 06:35:54;;;;;;;89.00;47.60;;;6.60;95.00;;;;;;4947904;28;20253;-79
2023/02/21 06:38:22;;;;;;;86.20;47.47;;;6.60;95.00;;;;;;4931502;29;20211;-79
2023/02/21 06:40:50;;;;;;;91.10;47.07;;;6.60;95.00;;;;;;4949634;28;20222;-79
2023/02/21 06:43:17;;;;;;;90.83;47.37;;;6.70;95.10;;;;;;4947871;28;20204;-80
2023/02/21 06:45:44;;;;;;;83.80;46.17;;;6.70;95.10;;;;;;4940566;29;20214;-80
2023/02/21 06:48:16;;;;;;;84.93;46.13;;;6.70;95.10;;;;;;4948221;28;20658;-80
2023/02/21 06:50:43;;;;;;;91.50;48.10;;;6.80;95.10;;;;;;4938207;29;20226;-80
2023/02/21 06:53:10;;;;;;;87.30;47.13;;;6.80;95.00;;;;;;4950652;28;20271;-80
2023/02/21 06:55:37;;;;;;;82.13;46.63;;;6.80;95.00;;;;;;4936355;29;20305;-81
2023/02/21 06:58:05;;;;;;;84.23;46.57;;;6.90;95.10;;;;;;4957593;28;20277;-80
2023/02/21 07:00:33;;;;;;;84.77;46.47;;;6.90;95.00;;;;;;4949190;28;20236;-80
2023/02/21 07:03:00;;;;;;;85.77;46.47;;;7.00;95.00;;;;;;4916963;29;20216;-80
2023/02/21 07:05:28;;;;;;;85.73;47.23;;;7.10;95.00;;;;;;4954154;28;20294;-80
2023/02/21 07:07:55;;;;;;;87.50;46.73;;;7.10;94.90;;;;;;4928468;29;20213;-80
2023/02/21 07:10:23;;;;;;;94.47;50.60;;;7.20;95.00;;;;;;4954562;28;20213;-79
2023/02/21 07:12:50;;;;;;;104.10;52.10;;;7.40;95.10;;;;;;4952516;28;20239;-80
2023/02/21 07:15:19;;;;;;;100.93;53.47;;;7.50;95.10;;;;;;4953318;28;20211;-80
2023/02/21 07:17:46;;;;;;;88.87;50.30;;;7.60;95.20;;;;;;4933367;28;20532;-80
2023/02/21 07:20:13;;;;;;;92.83;49.67;;;7.70;95.50;;;;;;4940400;29;20264;-80
2023/02/21 07:22:40;;;;;;;91.73;50.17;;;7.80;95.20;;;;;;4937660;28;20285;-80
2023/02/21 07:25:12;;;;;;;104.33;54.43;;;7.90;95.20;;;;;;4939309;29;20205;-79
2023/02/21 07:27:39;;;;;;;101.20;52.87;;;8.00;95.20;;;;;;4953576;28;20661;-80
2023/02/21 07:30:07;;;;;;;107.20;55.23;;;8.10;95.30;;;;;;4932585;29;20233;-80
2023/02/21 07:32:34;;;;;;;98.87;53.47;;;8.20;95.30;;;;;;4917088;28;20314;-79
2023/02/21 07:35:02;;;;;;;107.67;54.43;;;8.30;95.30;;;;;;4949980;28;20211;-80
2023/02/21 07:37:29;;;;;;;98.87;52.77;;;8.40;95.30;;;;;;4928073;29;20331;-79
2023/02/21 07:39:57;;;;;;;105.13;52.83;;;8.40;95.20;;;;;;4949138;28;20216;-80
2023/02/21 07:42:24;;;;;;;94.00;52.10;;;8.50;95.20;;;;;;4933346;29;20638;-80
2023/02/21 07:44:57;;;;;;;100.33;53.93;;;8.60;95.20;;;;;;4939300;28;20215;-80
2023/02/21 07:47:26;;;;;;;101.00;52.70;;;8.60;95.20;;;;;;4953767;28;20228;-79
2023/02/21 07:49:53;;;;;;;100.53;54.07;;;8.70;95.20;;;;;;4948553;28;20223;-80
2023/02/21 07:52:22;;;;;;;99.67;54.43;;;8.80;95.20;;;;;;4955290;28;20220;-80
2023/02/21 07:54:49;;;;;;;107.37;52.93;;;8.80;95.20;;;;;;4927571;29;20701;-79
2023/02/21 07:57:17;;;;;;;100.63;54.13;;;8.90;95.20;;;;;;4947023;28;20273;-80
2023/02/21 07:59:45;;;;;;;99.40;54.33;;;9.00;95.20;;;;;;4939843;29;20234;-80
2023/02/21 08:02:14;;;;;;;100.00;52.00;;;9.00;95.10;;;;;;4949697;28;20208;-80
2023/02/21 08:04:41;;;;;;;103.50;53.30;;;9.10;95.20;;;;;;4937544;29;20226;-80
2023/02/21 08:07:10;;;;;;;96.23;53.23;;;9.10;95.20;;;;;;4942511;29;20220;-80
2023/02/21 08:09:40;;;;;;;105.67;52.30;;;9.20;95.10;;;;;;4945988;28;20711;-82
2023/02/21 08:12:07;;;;;;;103.00;52.90;;;9.30;95.10;;;;;;4934060;29;20346;-80
2023/02/21 08:14:34;;;;;;;95.50;51.50;;;9.30;95.00;;;;;;4933990;29;20208;-80
2023/02/21 08:17:02;;;;;;;101.40;55.03;;;9.40;95.00;;;;;;4934630;28;20208;-80
2023/02/21 08:19:30;;;;;;;99.50;53.07;;;9.40;94.90;;;;;;4945100;28;20214;-80
2023/02/21 08:21:57;;;;;;;101.53;54.67;;;9.50;94.90;;;;;;4931334;29;20203;-80
2023/02/21 08:24:25;;;;;;;101.60;55.27;;;9.50;94.90;;;;;;4930100;29;20290;-80
2023/02/21 08:26:52;;;;;;;102.73;54.30;;;9.50;94.90;;;;;;4936003;28;20548;-79
2023/02/21 08:29:19;;;;;;;100.37;55.23;;;9.60;94.90;;;;;;4936211;29;20288;-80
2023/02/21 08:31:48;;;;;;;94.10;53.27;;;9.60;94.90;;;;;;4939530;28;20205;-80
2023/02/21 08:34:16;;;;;;;97.70;54.37;;;9.70;94.80;;;;;;4950392;28;20221;-80
2023/02/21 08:36:46;;;;;;;103.30;54.03;;;9.70;94.80;;;;;;4930568;29;20287;-80
2023/02/21 08:39:16;;;;;;;100.60;53.77;;;9.80;94.80;;;;;;4932493;29;20212;-80
2023/02/21 08:41:46;;;;;;;102.40;53.80;;;9.80;94.70;;;;;;4945775;28;20603;-80
2023/02/21 08:44:15;;;;;;;100.00;58.80;;;9.80;94.70;;;;;;4942769;28;20269;-79
2023/02/21 08:46:46;;;;;;;105.20;55.50;;;9.90;94.70;;;;;;4927039;29;20206;-80
2023/02/21 08:49:16;;;;;;;102.80;57.27;;;10.00;94.70;;;;;;4940308;29;20329;-79
2023/02/21 08:51:43;;;;;;;109.43;57.93;;;10.00;94.70;;;;;;4928488;29;20208;-80
2023/02/21 08:54:10;;;;;;;108.17;57.77;;;10.10;94.60;;;;;;4952148;28;20209;-80
2023/02/21 08:56:38;;;;;;;111.20;57.30;;;10.10;94.60;;;;;;4943192;28;20224;-81
2023/02/21 08:59:08;;;;;;;106.43;56.97;;;10.20;94.60;;;;;;4946767;28;20236;-79
2023/02/21 09:01:35;;;;;;;109.17;58.97;;;10.20;94.60;;;;;;4953316;28;20670;-80
2023/02/21 09:04:05;;;;;;;118.70;60.70;;;10.30;94.50;;;;;;4932529;29;20202;-80
2023/02/21 09:06:33;;;;;;;106.77;57.87;;;10.30;94.50;;;;;;4953431;28;20234;-81
2023/02/21 09:09:00;;;;;;;107.07;56.10;;;10.40;94.50;;;;;;4924603;29;20586;-80
2023/02/21 09:11:28;;;;;;;116.50;59.60;;;10.40;94.40;;;;;;4953098;28;20583;-80
2023/02/21 09:13:59;;;;;;;103.50;57.17;;;10.40;94.40;;;;;;4953535;28;20752;-79
2023/02/21 09:16:29;;;;;;;106.17;58.60;;;10.50;94.30;;;;;;4944679;28;20215;-80
2023/02/21 09:19:00;;;;;;;105.33;57.57;;;10.50;94.30;;;;;;4951464;28;20213;-80
2023/02/21 09:21:27;;;;;;;102.17;57.37;;;10.50;94.30;;;;;;4952504;28;20225;-80
2023/02/21 09:23:58;;;;;;;103.13;56.03;;;10.50;94.20;;;;;;4931826;29;20226;-80
2023/02/21 09:26:25;;;;;;;95.17;55.47;;;10.60;94.30;;;;;;4941477;28;20231;-79
2023/02/21 09:28:53;;;;;;;110.47;55.97;;;10.60;94.20;;;;;;4945704;28;20233;-81
2023/02/21 09:31:20;;;;;;;105.73;55.97;;;10.60;94.20;;;;;;4938810;29;20276;-79
2023/02/21 09:33:49;;;;;;;105.40;56.27;;;10.70;94.10;;;;;;4931466;29;20229;-80
2023/02/21 09:36:22;;;;;;;105.17;56.07;;;10.70;94.00;;;;;;4943349;28;20252;-80
2023/02/21 09:38:50;;;;;;;91.33;53.33;;;10.80;93.90;;;;;;4947166;28;20233;-80
2023/02/21 09:41:19;;;;;;;100.57;54.93;;;10.80;93.90;;;;;;4944585;28;20226;-80
2023/02/21 09:43:50;;;;;;;100.83;55.67;;;10.80;93.90;;;;;;4927538;29;20202;-79
2023/02/21 09:46:39;;;;;;;100.97;54.63;;;10.90;93.80;;;;;;4933892;29;20329;-80
2023/02/21 09:49:28;;;;;;;102.73;54.83;;;10.90;93.80;;;;;;4934576;28;20284;-79
2023/02/21 09:51:58;;;;;;;103.13;56.07;;;10.90;93.70;;;;;;4929800;29;20261;-80
2023/02/21 09:54:42;;;;;;;102.70;56.23;;;10.90;93.70;;;;;;4934910;29;20565;-79
2023/02/21 09:57:17;;;;;;;100.03;56.20;;;11.00;93.70;;;;;;4945804;28;20549;-79
2023/02/21 09:59:47;;;;;;;100.37;55.33;;;11.00;93.60;;;;;;4937473;29;20544;-80
2023/02/21 10:02:33;;;;;;;108.80;56.80;;;11.10;93.60;;;;;;4925766;29;20592;-79
2023/02/21 10:05:30;;;;;;;95.13;55.83;;;11.10;93.40;;;;;;4953571;28;20204;-80
2023/02/21 10:08:19;;;;;;;104.23;57.30;;;11.20;93.40;;;;;;4925571;29;20210;-79
2023/02/21 10:10:55;;;;;;;98.40;54.13;;;11.20;93.40;;;;;;4951378;28;20260;-80
2023/02/21 10:13:32;;;;;;;105.43;57.07;;;11.30;93.30;;;;;;4934692;29;20212;-80
2023/02/21 10:16:07;;;;;;;106.80;56.67;;;11.30;93.20;;;;;;4948769;28;20308;-79
2023/02/21 10:18:40;;;;;;;95.27;55.63;;;11.40;93.10;;;;;;4928458;29;20638;-79
2023/02/21 10:21:16;;;;;;;96.20;53.37;;;11.40;93.10;;;;;;4951041;28;20552;-80
2023/02/21 10:23:46;;;;;;;123.17;58.33;;;11.50;93.00;;;;;;4931671;29;20207;-80
2023/02/21 10:26:25;;;;;;;106.10;57.37;;;11.60;93.00;;;;;;4943382;28;20204;-79
2023/02/21 10:28:53;;;;;;;104.30;57.80;;;11.60;92.90;;;;;;4951319;28;20201;-79
2023/02/21 10:31:36;;;;;;;101.80;55.83;;;11.60;92.80;;;;;;4933525;29;20265;-79
2023/02/21 10:34:06;;;;;;;103.10;57.10;;;11.70;92.70;;;;;;4950219;28;20640;-79
2023/02/21 10:36:34;;;;;;;104.43;57.80;;;11.70;92.70;;;;;;4936673;29;20258;-80
2023/02/21 10:39:18;;;;;;;101.37;56.87;;;11.80;92.70;;;;;;4941823;28;20213;-79
2023/02/21 10:41:47;;;;;;;102.97;55.33;;;11.80;92.60;;;;;;4953854;28;20230;-79
2023/02/21 10:44:24;;;;;;;101.63;58.00;;;11.80;92.50;;;;;;4943881;28;20225;-79
2023/02/21 10:47:00;;;;;;;106.47;56.97;;;11.90;92.40;;;;;;4937475;29;20228;-80
2023/02/21 10:49:33;;;;;;;95.67;54.97;;;11.90;92.40;;;;;;4948134;28;20205;-79
2023/02/21 10:52:05;;;;;;;98.90;54.83;;;11.90;92.20;;;;;;4931620;29;20222;-80
2023/02/21 10:54:32;;;;;;;97.60;54.83;;;11.90;91.90;;;;;;4936906;29;20207;-80
2023/02/21 10:57:07;;;;;;;111.93;56.63;;;11.90;91.80;;;;;;4932444;29;20222;-81
2023/02/21 10:59:41;;;;;;;105.60;57.60;;;11.80;91.90;;;;;;4951361;28;20210;-80
2023/02/21 11:02:29;;;;;;;115.27;60.60;;;11.70;92.00;;;;;;4934896;29;20238;-81
2023/02/21 11:05:18;;;;;;;116.43;57.27;;;11.70;92.10;;;;;;4935066;29;20225;-80
2023/02/21 11:08:05;;;;;;;111.27;57.63;;;11.70;92.20;;;;;;4937939;29;20270;-80
2023/02/21 11:10:35;;;;;;;99.33;57.50;;;11.70;92.30;;;;;;4943003;29;20257;-79
2023/02/21 11:13:04;;;;;;;104.57;58.43;;;11.80;92.40;;;;;;4952653;28;20224;-79
2023/02/21 11:15:31;;;;;;;108.83;59.37;;;11.80;92.80;;;;;;4954311;28;20205;-80
2023/02/21 11:18:20;;;;;;;106.17;57.53;;;11.90;92.50;;;;;;4934235;28;20206;-79
2023/02/21 11:20:48;;;;;;;116.63;60.10;;;12.00;92.60;;;;;;4954752;28;20274;-80
2023/02/21 11:23:28;;;;;;;108.97;61.00;;;12.10;92.50;;;;;;4939917;29;20194;-79
2023/02/21 11:26:11;;;;;;;112.57;60.37;;;12.20;92.50;;;;;;4932463;28;20232;-80
2023/02/21 11:28:42;;;;;;;116.53;66.83;;;12.30;92.40;;;;;;4950943;28;20201;-80
2023/02/21 11:31:27;;;;;;;118.80;64.30;;;12.40;92.20;;;;;;4945808;28;20652;-80
2023/02/21 11:33:58;;;;;;;121.93;61.77;;;12.50;92.10;;;;;;4953919;28;20321;-79
2023/02/21 11:36:29;;;;;;;106.17;57.80;;;12.60;92.00;;;;;;4953854;28;20270;-80
2023/02/21 11:38:59;;;;;;;103.60;56.30;;;12.70;91.90;;;;;;4932240;29;20209;-81
2023/02/21 11:41:29;;;;;;;107.07;58.03;;;12.80;91.80;;;;;;4954717;28;20228;-80
2023/02/21 11:43:57;;;;;;;101.97;57.80;;;12.80;91.60;;;;;;4943739;28;20233;-80
2023/02/21 11:46:45;;;;;;;105.33;56.33;;;12.90;91.50;;;;;;4953113;28;20221;-79
2023/02/21 11:50:00;;;;;;;99.13;56.80;;;13.00;91.50;;;;;;4948500;28;20197;-79
2023/02/21 11:53:01;;;;;;;96.00;55.60;;;13.10;91.30;;;;;;4945779;28;20219;-79
2023/02/21 11:55:31;;;;;;;100.97;56.13;;;13.20;91.20;;;;;;4948699;28;20666;-80
2023/02/21 11:58:17;;;;;;;93.80;53.93;;;13.30;91.10;;;;;;4929816;29;20547;-79
2023/02/21 12:01:01;;;;;;;102.60;54.73;;;13.40;90.80;;;;;;4954078;28;20232;-80
2023/02/21 12:03:50;;;;;;;125.57;58.43;;;13.50;90.70;;;;;;4953769;28;20201;-79
2023/02/21 12:06:35;;;;;;;110.47;57.63;;;13.60;90.50;;;;;;4947881;28;20206;-79
2023/02/21 12:09:23;;;;;;;99.90;57.07;;;13.70;90.40;;;;;;4951656;28;20233;-79
2023/02/21 12:12:01;;;;;;;92.30;54.33;;;13.70;90.20;;;;;;4949512;28;20855;-80
2023/02/21 12:14:57;;;;;;;97.43;55.27;;;13.80;90.10;;;;;;4950722;28;20201;-79
2023/02/21 12:17:46;;;;;;;94.07;53.50;;;13.80;90.00;;;;;;4940920;28;20225;-79
2023/02/21 12:20:32;;;;;;;102.43;55.17;;;13.90;89.70;;;;;;4943134;28;20321;-80
2023/02/21 12:23:39;;;;;;;102.80;56.33;;;13.90;89.50;;;;;;4950901;28;20524;-80
2023/02/21 12:26:38;;;;;;;91.03;55.43;;;14.00;89.40;;;;;;4949894;28;20208;-79
2023/02/21 12:29:28;;;;;;;96.53;54.73;;;14.00;89.30;;;;;;4950997;28;20317;-79
2023/02/21 12:32:22;;;;;;;104.80;55.23;;;14.10;88.90;;;;;;4941889;28;20616;-79
2023/02/21 12:35:04;;;;;;;102.90;56.67;;;14.20;88.70;;;;;;4955632;28;20228;-78
2023/02/21 12:37:49;;;;;;;98.90;54.70;;;14.30;88.40;;;;;;4947367;28;20638;-80
2023/02/21 12:40:42;;;;;;;101.43;55.73;;;14.30;87.60;;;;;;4950289;28;20210;-79
2023/02/21 12:43:19;;;;;;;93.13;55.90;;;14.40;87.30;;;;;;4942815;28;20238;-79
2023/02/21 12:45:52;;;;;;;96.83;56.30;;;14.50;87.40;;;;;;4953608;28;20201;-79
2023/02/21 12:48:38;;;;;;;98.20;55.20;;;14.60;87.50;;;;;;4950463;28;20214;-79
2023/02/21 12:51:10;;;;;;;100.47;55.10;;;14.60;87.00;;;;;;4950391;29;20744;-79
2023/02/21 12:54:00;;;;;;;98.13;54.20;;;14.70;86.80;;;;;;4935619;28;20228;-79
2023/02/21 12:56:48;;;;;;;92.53;54.43;;;14.80;86.60;;;;;;4942368;28;20202;-80
2023/02/21 12:59:38;;;;;;;99.80;55.90;;;14.80;85.80;;;;;;4929363;29;20752;-79
2023/02/21 13:02:25;;;;;;;89.07;52.77;;;14.80;85.80;;;;;;4941790;28;20704;-79
2023/02/21 13:04:58;;;;;;;96.73;53.60;;;14.90;85.90;;;;;;4928773;28;20604;-79
2023/02/21 13:07:35;;;;;;;93.87;55.17;;;14.90;85.90;;;;;;4939838;29;20202;-79
2023/02/21 13:10:15;;;;;;;94.07;54.67;;;14.90;85.70;;;;;;4944075;28;20532;-79
2023/02/21 13:12:46;;;;;;;92.47;53.50;;;14.90;85.60;;;;;;4946014;28;20206;-82
2023/02/21 13:15:21;;;;;;;90.03;51.50;;;14.90;85.50;;;;;;4947458;28;20225;-79
2023/02/21 13:17:56;;;;;;;88.80;52.27;;;15.00;85.40;;;;;;4948753;28;20309;-79
2023/02/21 13:20:26;;;;;;;89.07;52.63;;;15.00;85.40;;;;;;4926423;29;20222;-79
2023/02/21 13:26:21;;;;;;;87.57;51.80;;;15.00;85.20;;;;;;4946989;28;20341;-79
2023/02/21 13:28:54;;;;;;;87.50;51.27;;;15.00;84.90;;;;;;4950151;28;20222;-79
2023/02/21 13:31:28;;;;;;;94.53;53.07;;;15.00;84.70;;;;;;4941007;28;20207;-78
2023/02/21 13:34:00;;;;;;;86.87;50.37;;;15.00;84.70;;;;;;4960257;28;20248;-79
2023/02/21 13:36:42;;;;;;;90.67;51.33;;;15.00;84.60;;;;;;4956971;28;20546;-79
2023/02/21 13:39:17;;;;;;;86.03;48.03;;;14.90;84.50;;;;;;4941220;29;20207;-79
2023/02/21 13:41:50;;;;;;;79.07;48.00;;;14.90;84.40;;;;;;4955522;28;20228;-79
2023/02/21 13:44:29;;;;;;;82.47;48.17;;;14.80;84.40;;;;;;4956751;28;20216;-79
2023/02/21 13:47:10;;;;;;;88.33;49.77;;;14.70;84.40;;;;;;4963569;28;20228;-79
2023/02/21 13:49:54;;;;;;;80.37;47.23;;;14.60;84.40;;;;;;4953646;28;20293;-79
2023/02/21 13:52:27;;;;;;;79.80;47.27;;;14.60;84.30;;;;;;4952336;28;20212;-79
2023/02/21 13:55:17;;;;;;;85.80;49.77;;;14.50;84.40;;;;;;4939052;28;20226;-79
2023/02/21 13:57:56;;;;;;;80.77;48.60;;;14.40;84.60;;;;;;4956287;28;20350;-79
2023/02/21 14:00:26;;;;;;;86.97;46.97;;;14.40;84.90;;;;;;4947814;28;20232;-79
2023/02/21 14:03:19;;;;;;;84.00;48.70;;;14.50;84.70;;;;;;4954833;28;20226;-79
2023/02/21 14:05:50;;;;;;;78.37;47.53;;;14.60;84.50;;;;;;4949642;28;20200;-78
2023/02/21 14:08:31;;;;;;;78.17;46.20;;;14.60;84.00;;;;;;4949416;28;20216;-79
2023/02/21 14:10:58;;;;;;;75.83;44.93;;;14.70;83.60;;;;;;4951873;28;20577;-79
2023/02/21 14:13:45;;;;;;;71.47;43.13;;;14.70;83.50;;;;;;4954584;28;20213;-79
2023/02/21 14:16:13;;;;;;;78.13;44.77;;;14.80;83.40;;;;;;4956891;28;20285;-79
2023/02/21 14:18:55;;;;;;;65.73;41.03;;;14.80;82.90;;;;;;4948636;28;20638;-80
2023/02/21 14:21:46;;;;;;;82.57;44.57;;;14.90;82.40;;;;;;4954614;28;20222;-79
2023/02/21 14:24:22;;;;;;;70.40;43.23;;;14.90;82.00;;;;;;4956722;28;20222;-79
2023/02/21 14:26:51;;;;;;;76.93;45.87;;;15.00;81.90;;;;;;4952400;28;20232;-79
2023/02/21 14:29:34;;;;;;;77.13;41.73;;;15.00;81.90;;;;;;4951985;28;20277;-79
2023/02/21 14:32:01;;;;;;;68.40;42.33;;;15.10;81.90;;;;;;4946084;28;20219;-79
2023/02/21 14:34:47;;;;;;;75.33;41.90;;;15.10;81.50;;;;;;4948914;28;20202;-79
2023/02/21 14:37:33;;;;;;;62.37;40.67;;;15.10;81.10;;;;;;4950759;28;20277;-79
2023/02/21 14:40:15;;;;;;;65.17;39.67;;;15.10;81.00;;;;;;4955229;28;20210;-79
2023/02/21 14:43:04;;;;;;;65.07;37.07;;;15.10;81.10;;;;;;4964282;28;20216;-79
2023/02/21 14:45:54;;;;;;;62.53;35.73;;;15.10;81.00;;;;;;4946818;28;20631;-79
2023/02/21 14:48:58;;;;;;;62.73;38.97;;;15.10;80.40;;;;;;4942023;28;20213;-79
2023/02/21 14:52:12;;;;;;;62.23;39.53;;;15.10;80.30;;;;;;4951327;28;20223;-79
2023/02/21 14:55:17;;;;;;;65.43;39.80;;;15.10;80.60;;;;;;4913324;29;20912;-80
2023/02/21 14:58:26;;;;;;;59.83;37.23;;;15.10;80.60;;;;;;4948134;29;20261;-79
2023/02/21 15:01:12;;;;;;;63.17;37.83;;;15.10;80.40;;;;;;4928719;29;20653;-80
2023/02/21 15:03:53;;;;;;;58.70;35.37;;;15.10;80.50;;;;;;4950305;28;20544;-80
2023/02/21 15:06:24;;;;;;;59.23;36.90;;;15.00;80.30;;;;;;4952286;28;20206;-80
2023/02/21 15:08:51;;;;;;;54.97;35.30;;;15.10;80.40;;;;;;4920556;29;20864;-80
2023/02/21 15:11:35;;;;;;;56.57;36.27;;;15.00;80.40;;;;;;4944303;28;20296;-80
2023/02/21 15:14:28;;;;;;;60.80;37.53;;;15.10;80.50;;;;;;4944999;28;20207;-80
2023/02/21 15:17:00;;;;;;;58.07;36.33;;;15.10;80.30;;;;;;4950429;28;20237;-80
2023/02/21 15:19:33;;;;;;;59.07;35.43;;;15.00;80.10;;;;;;4932004;28;20241;-80
2023/02/21 15:22:23;;;;;;;57.97;35.53;;;15.00;80.20;;;;;;4952648;28;20234;-80